sensor_id;sensor_type;location;lat;lon;timestamp;P1;durP1;ratioP1;P2;durP2;ratioP2
63005;SDS011;53704;52.532;6.426;2023-07-13T00:01:04;14.23;;;2.15;;
63005;SDS011;53704;52.532;6.426;2023-07-13T00:03:29;9.77;;;2.40;;
63005;SDS011;53704;52.532;6.426;2023-07-13T00:06:00;12.90;;;2.65;;
63005;SDS011;53704;52.532;6.426;2023-07-13T00:08:29;13.82;;;2.50;;
63005;SDS011;53704;52.532;6.426;2023-07-13T00:10:57;11.57;;;3.15;;
63005;SDS011;53704;52.532;6.426;2023-07-13T00:13:23;9.50;;;2.38;;
63005;SDS011;53704;52.532;6.426;2023-07-13T00:15:48;15.90;;;2.95;;
63005;SDS011;53704;52.532;6.426;2023-07-13T00:18:14;9.32;;;2.92;;
63005;SDS011;53704;52.532;6.426;2023-07-13T00:20:39;10.35;;;2.90;;
63005;SDS011;53704;52.532;6.426;2023-07-13T00:23:06;14.38;;;3.30;;
63005;SDS011;53704;52.532;6.426;2023-07-13T00:25:32;13.05;;;2.40;;
63005;SDS011;53704;52.532;6.426;2023-07-13T00:27:57;8.75;;;2.58;;
63005;SDS011;53704;52.532;6.426;2023-07-13T00:30:23;16.65;;;2.78;;
63005;SDS011;53704;52.532;6.426;2023-07-13T00:32:49;10.82;;;2.15;;
63005;SDS011;53704;52.532;6.426;2023-07-13T00:35:15;18.23;;;3.65;;
63005;SDS011;53704;52.532;6.426;2023-07-13T00:37:40;17.80;;;3.08;;
63005;SDS011;53704;52.532;6.426;2023-07-13T00:40:07;9.32;;;2.03;;
63005;SDS011;53704;52.532;6.426;2023-07-13T00:42:34;12.23;;;2.45;;
63005;SDS011;53704;52.532;6.426;2023-07-13T00:47:37;10.05;;;2.78;;
63005;SDS011;53704;52.532;6.426;2023-07-13T00:50:06;12.00;;;2.58;;
63005;SDS011;53704;52.532;6.426;2023-07-13T00:52:41;9.90;;;2.83;;
63005;SDS011;53704;52.532;6.426;2023-07-13T00:55:09;12.57;;;2.53;;
63005;SDS011;53704;52.532;6.426;2023-07-13T00:57:37;19.63;;;3.83;;
63005;SDS011;53704;52.532;6.426;2023-07-13T01:00:04;16.13;;;2.47;;
63005;SDS011;53704;52.532;6.426;2023-07-13T01:02:31;11.40;;;2.47;;
63005;SDS011;53704;52.532;6.426;2023-07-13T01:04:58;10.10;;;2.10;;
63005;SDS011;53704;52.532;6.426;2023-07-13T01:07:23;21.85;;;3.65;;
63005;SDS011;53704;52.532;6.426;2023-07-13T01:09:50;24.65;;;3.53;;
63005;SDS011;53704;52.532;6.426;2023-07-13T01:12:18;16.58;;;2.88;;
63005;SDS011;53704;52.532;6.426;2023-07-13T01:14:43;10.45;;;2.85;;
63005;SDS011;53704;52.532;6.426;2023-07-13T01:17:11;9.50;;;2.08;;
63005;SDS011;53704;52.532;6.426;2023-07-13T01:19:44;14.93;;;3.85;;
63005;SDS011;53704;52.532;6.426;2023-07-13T01:24:40;15.52;;;3.10;;
63005;SDS011;53704;52.532;6.426;2023-07-13T01:27:09;14.15;;;2.58;;
63005;SDS011;53704;52.532;6.426;2023-07-13T01:29:37;16.45;;;3.90;;
63005;SDS011;53704;52.532;6.426;2023-07-13T01:32:07;13.10;;;2.85;;
63005;SDS011;53704;52.532;6.426;2023-07-13T01:34:35;19.58;;;3.60;;
63005;SDS011;53704;52.532;6.426;2023-07-13T01:37:02;16.20;;;3.45;;
63005;SDS011;53704;52.532;6.426;2023-07-13T01:39:28;15.20;;;3.30;;
63005;SDS011;53704;52.532;6.426;2023-07-13T01:41:53;12.10;;;2.65;;
63005;SDS011;53704;52.532;6.426;2023-07-13T01:44:19;23.92;;;3.55;;
63005;SDS011;53704;52.532;6.426;2023-07-13T01:46:44;24.27;;;3.80;;
63005;SDS011;53704;52.532;6.426;2023-07-13T01:49:10;15.43;;;3.70;;
63005;SDS011;53704;52.532;6.426;2023-07-13T01:51:35;9.77;;;2.90;;
63005;SDS011;53704;52.532;6.426;2023-07-13T01:54:01;18.70;;;3.53;;
63005;SDS011;53704;52.532;6.426;2023-07-13T01:56:26;12.27;;;3.53;;
63005;SDS011;53704;52.532;6.426;2023-07-13T01:58:51;13.60;;;2.83;;
63005;SDS011;53704;52.532;6.426;2023-07-13T02:01:17;12.50;;;2.95;;
63005;SDS011;53704;52.532;6.426;2023-07-13T02:03:43;13.90;;;3.00;;
63005;SDS011;53704;52.532;6.426;2023-07-13T02:06:08;8.35;;;3.38;;
63005;SDS011;53704;52.532;6.426;2023-07-13T02:08:34;9.75;;;2.88;;
63005;SDS011;53704;52.532;6.426;2023-07-13T02:10:59;14.90;;;3.67;;
63005;SDS011;53704;52.532;6.426;2023-07-13T02:13:25;11.27;;;3.17;;
63005;SDS011;53704;52.532;6.426;2023-07-13T02:15:51;13.75;;;3.03;;
63005;SDS011;53704;52.532;6.426;2023-07-13T02:18:17;9.27;;;3.05;;
63005;SDS011;53704;52.532;6.426;2023-07-13T02:20:43;23.98;;;3.45;;
63005;SDS011;53704;52.532;6.426;2023-07-13T02:23:09;11.95;;;3.22;;
63005;SDS011;53704;52.532;6.426;2023-07-13T02:25:35;13.40;;;2.75;;
63005;SDS011;53704;52.532;6.426;2023-07-13T02:28:00;19.83;;;3.97;;
63005;SDS011;53704;52.532;6.426;2023-07-13T02:30:26;19.75;;;2.85;;
63005;SDS011;53704;52.532;6.426;2023-07-13T02:32:52;11.43;;;3.25;;
63005;SDS011;53704;52.532;6.426;2023-07-13T02:35:17;12.98;;;3.30;;
63005;SDS011;53704;52.532;6.426;2023-07-13T02:37:43;12.75;;;3.85;;
63005;SDS011;53704;52.532;6.426;2023-07-13T02:40:08;11.75;;;3.38;;
63005;SDS011;53704;52.532;6.426;2023-07-13T02:42:34;12.80;;;3.33;;
63005;SDS011;53704;52.532;6.426;2023-07-13T02:45:00;19.02;;;3.03;;
63005;SDS011;53704;52.532;6.426;2023-07-13T02:47:25;10.18;;;2.90;;
63005;SDS011;53704;52.532;6.426;2023-07-13T02:49:52;13.32;;;3.83;;
63005;SDS011;53704;52.532;6.426;2023-07-13T02:52:17;16.58;;;3.80;;
63005;SDS011;53704;52.532;6.426;2023-07-13T02:54:43;7.88;;;2.85;;
63005;SDS011;53704;52.532;6.426;2023-07-13T02:57:08;10.18;;;3.47;;
63005;SDS011;53704;52.532;6.426;2023-07-13T02:59:34;14.63;;;3.47;;
63005;SDS011;53704;52.532;6.426;2023-07-13T03:02:00;17.33;;;3.40;;
63005;SDS011;53704;52.532;6.426;2023-07-13T03:04:26;7.28;;;3.38;;
63005;SDS011;53704;52.532;6.426;2023-07-13T03:06:52;10.23;;;3.10;;
63005;SDS011;53704;52.532;6.426;2023-07-13T03:09:17;11.60;;;3.75;;
63005;SDS011;53704;52.532;6.426;2023-07-13T03:11:43;9.38;;;2.75;;
63005;SDS011;53704;52.532;6.426;2023-07-13T03:14:08;11.95;;;3.55;;
63005;SDS011;53704;52.532;6.426;2023-07-13T03:16:34;14.00;;;3.50;;
63005;SDS011;53704;52.532;6.426;2023-07-13T03:18:59;11.80;;;3.47;;
63005;SDS011;53704;52.532;6.426;2023-07-13T03:21:25;7.07;;;2.97;;
63005;SDS011;53704;52.532;6.426;2023-07-13T03:23:50;17.75;;;3.97;;
63005;SDS011;53704;52.532;6.426;2023-07-13T03:26:17;9.50;;;3.20;;
63005;SDS011;53704;52.532;6.426;2023-07-13T03:28:44;8.40;;;3.00;;
63005;SDS011;53704;52.532;6.426;2023-07-13T03:31:14;12.10;;;3.78;;
63005;SDS011;53704;52.532;6.426;2023-07-13T03:33:43;14.68;;;4.50;;
63005;SDS011;53704;52.532;6.426;2023-07-13T03:36:12;9.00;;;3.33;;
63005;SDS011;53704;52.532;6.426;2023-07-13T03:38:39;10.60;;;3.10;;
63005;SDS011;53704;52.532;6.426;2023-07-13T03:41:05;11.98;;;3.20;;
63005;SDS011;53704;52.532;6.426;2023-07-13T03:43:30;13.80;;;3.92;;
63005;SDS011;53704;52.532;6.426;2023-07-13T03:45:56;10.32;;;3.33;;
63005;SDS011;53704;52.532;6.426;2023-07-13T03:48:21;9.23;;;2.92;;
63005;SDS011;53704;52.532;6.426;2023-07-13T03:50:48;10.07;;;3.33;;
63005;SDS011;53704;52.532;6.426;2023-07-13T03:53:14;10.90;;;3.15;;
63005;SDS011;53704;52.532;6.426;2023-07-13T03:55:40;16.33;;;3.88;;
63005;SDS011;53704;52.532;6.426;2023-07-13T04:01:05;15.65;;;4.13;;
63005;SDS011;53704;52.532;6.426;2023-07-13T04:03:32;17.85;;;3.38;;
63005;SDS011;53704;52.532;6.426;2023-07-13T04:05:59;12.18;;;2.75;;
63005;SDS011;53704;52.532;6.426;2023-07-13T04:08:26;7.82;;;3.47;;
63005;SDS011;53704;52.532;6.426;2023-07-13T04:10:53;16.88;;;3.88;;
63005;SDS011;53704;52.532;6.426;2023-07-13T04:13:19;13.52;;;3.67;;
63005;SDS011;53704;52.532;6.426;2023-07-13T04:15:44;10.90;;;3.90;;
63005;SDS011;53704;52.532;6.426;2023-07-13T04:18:10;11.32;;;3.25;;
63005;SDS011;53704;52.532;6.426;2023-07-13T04:20:35;14.43;;;3.83;;
63005;SDS011;53704;52.532;6.426;2023-07-13T04:23:01;16.15;;;4.00;;
63005;SDS011;53704;52.532;6.426;2023-07-13T04:25:27;14.40;;;4.00;;
63005;SDS011;53704;52.532;6.426;2023-07-13T04:27:53;9.98;;;3.65;;
63005;SDS011;53704;52.532;6.426;2023-07-13T04:30:19;13.68;;;3.25;;
63005;SDS011;53704;52.532;6.426;2023-07-13T04:32:45;16.63;;;3.90;;
63005;SDS011;53704;52.532;6.426;2023-07-13T04:35:10;17.40;;;4.38;;
63005;SDS011;53704;52.532;6.426;2023-07-13T04:37:36;18.88;;;4.35;;
63005;SDS011;53704;52.532;6.426;2023-07-13T04:40:01;7.93;;;3.20;;
63005;SDS011;53704;52.532;6.426;2023-07-13T04:42:28;17.02;;;4.28;;
63005;SDS011;53704;52.532;6.426;2023-07-13T04:44:54;15.90;;;4.32;;
63005;SDS011;53704;52.532;6.426;2023-07-13T04:47:19;20.45;;;4.63;;
63005;SDS011;53704;52.532;6.426;2023-07-13T04:49:45;13.38;;;3.75;;
63005;SDS011;53704;52.532;6.426;2023-07-13T04:52:11;13.75;;;4.15;;
63005;SDS011;53704;52.532;6.426;2023-07-13T04:54:37;14.23;;;3.90;;
63005;SDS011;53704;52.532;6.426;2023-07-13T04:57:03;13.02;;;4.22;;
63005;SDS011;53704;52.532;6.426;2023-07-13T04:59:31;16.00;;;3.83;;
63005;SDS011;53704;52.532;6.426;2023-07-13T05:01:57;17.70;;;3.90;;
63005;SDS011;53704;52.532;6.426;2023-07-13T05:04:23;12.38;;;3.75;;
63005;SDS011;53704;52.532;6.426;2023-07-13T05:06:49;19.17;;;3.83;;
63005;SDS011;53704;52.532;6.426;2023-07-13T05:09:14;25.20;;;5.30;;
63005;SDS011;53704;52.532;6.426;2023-07-13T05:11:40;12.50;;;4.50;;
63005;SDS011;53704;52.532;6.426;2023-07-13T05:14:05;17.92;;;6.53;;
63005;SDS011;53704;52.532;6.426;2023-07-13T05:16:31;7.20;;;3.67;;
63005;SDS011;53704;52.532;6.426;2023-07-13T05:18:57;21.73;;;5.22;;
63005;SDS011;53704;52.532;6.426;2023-07-13T05:21:23;14.05;;;4.38;;
63005;SDS011;53704;52.532;6.426;2023-07-13T05:23:49;18.27;;;4.45;;
63005;SDS011;53704;52.532;6.426;2023-07-13T05:26:15;13.80;;;4.53;;
63005;SDS011;53704;52.532;6.426;2023-07-13T05:28:40;17.38;;;4.75;;
63005;SDS011;53704;52.532;6.426;2023-07-13T05:31:07;20.83;;;4.45;;
63005;SDS011;53704;52.532;6.426;2023-07-13T05:33:34;18.48;;;4.13;;
63005;SDS011;53704;52.532;6.426;2023-07-13T05:36:00;11.68;;;3.70;;
63005;SDS011;53704;52.532;6.426;2023-07-13T05:38:26;25.25;;;4.28;;
63005;SDS011;53704;52.532;6.426;2023-07-13T05:40:53;13.85;;;4.53;;
63005;SDS011;53704;52.532;6.426;2023-07-13T05:43:19;20.05;;;4.63;;
63005;SDS011;53704;52.532;6.426;2023-07-13T05:45:44;24.75;;;4.95;;
63005;SDS011;53704;52.532;6.426;2023-07-13T05:48:10;16.42;;;4.93;;
63005;SDS011;53704;52.532;6.426;2023-07-13T05:50:35;21.98;;;4.18;;
63005;SDS011;53704;52.532;6.426;2023-07-13T05:53:01;14.48;;;4.22;;
63005;SDS011;53704;52.532;6.426;2023-07-13T05:55:26;19.80;;;4.78;;
63005;SDS011;53704;52.532;6.426;2023-07-13T05:57:52;10.13;;;3.35;;
63005;SDS011;53704;52.532;6.426;2023-07-13T06:00:17;19.38;;;5.32;;
63005;SDS011;53704;52.532;6.426;2023-07-13T06:02:43;12.90;;;4.22;;
63005;SDS011;53704;52.532;6.426;2023-07-13T06:05:08;14.93;;;3.63;;
63005;SDS011;53704;52.532;6.426;2023-07-13T06:07:34;14.50;;;4.20;;
63005;SDS011;53704;52.532;6.426;2023-07-13T06:09:59;23.38;;;5.03;;
63005;SDS011;53704;52.532;6.426;2023-07-13T06:12:25;20.30;;;4.45;;
63005;SDS011;53704;52.532;6.426;2023-07-13T06:14:53;23.60;;;4.18;;
63005;SDS011;53704;52.532;6.426;2023-07-13T06:17:19;16.63;;;4.30;;
63005;SDS011;53704;52.532;6.426;2023-07-13T06:19:47;20.58;;;6.82;;
63005;SDS011;53704;52.532;6.426;2023-07-13T06:22:12;13.73;;;4.00;;
63005;SDS011;53704;52.532;6.426;2023-07-13T06:24:38;18.88;;;5.25;;
63005;SDS011;53704;52.532;6.426;2023-07-13T06:27:06;20.40;;;4.55;;
63005;SDS011;53704;52.532;6.426;2023-07-13T06:29:32;17.42;;;5.15;;
63005;SDS011;53704;52.532;6.426;2023-07-13T06:32:00;13.07;;;3.92;;
63005;SDS011;53704;52.532;6.426;2023-07-13T06:34:26;17.10;;;5.03;;
63005;SDS011;53704;52.532;6.426;2023-07-13T06:36:51;16.85;;;4.57;;
63005;SDS011;53704;52.532;6.426;2023-07-13T06:39:17;21.27;;;5.75;;
63005;SDS011;53704;52.532;6.426;2023-07-13T06:41:42;23.75;;;5.47;;
63005;SDS011;53704;52.532;6.426;2023-07-13T06:44:08;17.13;;;5.20;;
63005;SDS011;53704;52.532;6.426;2023-07-13T06:46:33;20.33;;;5.00;;
63005;SDS011;53704;52.532;6.426;2023-07-13T06:48:59;15.18;;;4.70;;
63005;SDS011;53704;52.532;6.426;2023-07-13T06:51:24;16.77;;;4.50;;
63005;SDS011;53704;52.532;6.426;2023-07-13T06:53:51;17.70;;;5.20;;
63005;SDS011;53704;52.532;6.426;2023-07-13T06:56:16;16.33;;;5.82;;
63005;SDS011;53704;52.532;6.426;2023-07-13T06:58:42;33.47;;;6.70;;
63005;SDS011;53704;52.532;6.426;2023-07-13T07:01:08;20.80;;;4.95;;
63005;SDS011;53704;52.532;6.426;2023-07-13T07:03:34;22.67;;;5.93;;
63005;SDS011;53704;52.532;6.426;2023-07-13T07:06:00;22.80;;;5.90;;
63005;SDS011;53704;52.532;6.426;2023-07-13T07:08:27;23.58;;;5.18;;
63005;SDS011;53704;52.532;6.426;2023-07-13T07:10:52;26.08;;;5.70;;
63005;SDS011;53704;52.532;6.426;2023-07-13T07:13:19;24.25;;;6.32;;
63005;SDS011;53704;52.532;6.426;2023-07-13T07:15:44;17.60;;;5.88;;
63005;SDS011;53704;52.532;6.426;2023-07-13T07:18:10;23.25;;;5.70;;
63005;SDS011;53704;52.532;6.426;2023-07-13T07:20:36;11.27;;;5.35;;
63005;SDS011;53704;52.532;6.426;2023-07-13T07:23:01;21.27;;;6.07;;
63005;SDS011;53704;52.532;6.426;2023-07-13T07:25:27;17.20;;;6.00;;
63005;SDS011;53704;52.532;6.426;2023-07-13T07:27:56;22.38;;;6.35;;
63005;SDS011;53704;52.532;6.426;2023-07-13T07:30:22;21.85;;;6.43;;
63005;SDS011;53704;52.532;6.426;2023-07-13T07:32:48;18.17;;;6.28;;
63005;SDS011;53704;52.532;6.426;2023-07-13T07:35:13;23.50;;;6.50;;
63005;SDS011;53704;52.532;6.426;2023-07-13T07:37:39;22.48;;;6.25;;
63005;SDS011;53704;52.532;6.426;2023-07-13T07:40:04;28.33;;;7.55;;
63005;SDS011;53704;52.532;6.426;2023-07-13T07:42:30;13.13;;;5.88;;
63005;SDS011;53704;52.532;6.426;2023-07-13T07:44:56;18.10;;;6.28;;
63005;SDS011;53704;52.532;6.426;2023-07-13T07:47:21;22.10;;;6.22;;
63005;SDS011;53704;52.532;6.426;2023-07-13T07:49:48;19.33;;;6.13;;
63005;SDS011;53704;52.532;6.426;2023-07-13T07:52:13;18.25;;;5.85;;
63005;SDS011;53704;52.532;6.426;2023-07-13T07:54:38;28.95;;;7.45;;
63005;SDS011;53704;52.532;6.426;2023-07-13T07:57:04;16.77;;;6.57;;
63005;SDS011;53704;52.532;6.426;2023-07-13T07:59:30;12.93;;;5.75;;
63005;SDS011;53704;52.532;6.426;2023-07-13T08:01:55;16.65;;;5.95;;
63005;SDS011;53704;52.532;6.426;2023-07-13T08:04:21;17.23;;;6.03;;
63005;SDS011;53704;52.532;6.426;2023-07-13T08:06:46;19.38;;;6.45;;
63005;SDS011;53704;52.532;6.426;2023-07-13T08:09:11;30.95;;;5.72;;
63005;SDS011;53704;52.532;6.426;2023-07-13T08:11:37;17.38;;;5.50;;
63005;SDS011;53704;52.532;6.426;2023-07-13T08:14:03;19.17;;;5.15;;
63005;SDS011;53704;52.532;6.426;2023-07-13T08:16:28;19.45;;;5.43;;
63005;SDS011;53704;52.532;6.426;2023-07-13T08:18:54;21.52;;;6.03;;
63005;SDS011;53704;52.532;6.426;2023-07-13T08:21:19;25.17;;;6.20;;
63005;SDS011;53704;52.532;6.426;2023-07-13T08:23:45;14.60;;;5.43;;
63005;SDS011;53704;52.532;6.426;2023-07-13T08:26:11;19.25;;;5.60;;
63005;SDS011;53704;52.532;6.426;2023-07-13T08:28:36;13.23;;;5.60;;
63005;SDS011;53704;52.532;6.426;2023-07-13T08:31:05;16.00;;;5.97;;
63005;SDS011;53704;52.532;6.426;2023-07-13T08:33:33;18.92;;;4.63;;
63005;SDS011;53704;52.532;6.426;2023-07-13T08:36:00;12.88;;;5.25;;
63005;SDS011;53704;52.532;6.426;2023-07-13T08:38:26;18.42;;;5.60;;
63005;SDS011;53704;52.532;6.426;2023-07-13T08:40:55;15.48;;;5.05;;
63005;SDS011;53704;52.532;6.426;2023-07-13T08:43:24;15.18;;;4.97;;
63005;SDS011;53704;52.532;6.426;2023-07-13T08:45:53;13.68;;;4.68;;
63005;SDS011;53704;52.532;6.426;2023-07-13T08:48:31;15.68;;;5.80;;
63005;SDS011;53704;52.532;6.426;2023-07-13T08:51:11;24.30;;;6.97;;
63005;SDS011;53704;52.532;6.426;2023-07-13T08:56:26;13.50;;;6.03;;
63005;SDS011;53704;52.532;6.426;2023-07-13T08:59:13;13.40;;;5.50;;
63005;SDS011;53704;52.532;6.426;2023-07-13T09:04:44;18.00;;;6.47;;
63005;SDS011;53704;52.532;6.426;2023-07-13T09:07:21;10.43;;;6.20;;
63005;SDS011;53704;52.532;6.426;2023-07-13T09:10:17;20.38;;;6.43;;
63005;SDS011;53704;52.532;6.426;2023-07-13T09:13:09;14.95;;;6.85;;
63005;SDS011;53704;52.532;6.426;2023-07-13T09:15:39;12.63;;;7.18;;
63005;SDS011;53704;52.532;6.426;2023-07-13T09:18:10;16.67;;;7.88;;
63005;SDS011;53704;52.532;6.426;2023-07-13T09:20:42;29.65;;;7.72;;
63005;SDS011;53704;52.532;6.426;2023-07-13T09:23:17;24.50;;;7.77;;
63005;SDS011;53704;52.532;6.426;2023-07-13T09:25:49;23.83;;;8.32;;
63005;SDS011;53704;52.532;6.426;2023-07-13T09:28:28;23.75;;;7.22;;
63005;SDS011;53704;52.532;6.426;2023-07-13T09:31:13;18.35;;;6.30;;
63005;SDS011;53704;52.532;6.426;2023-07-13T09:33:41;14.30;;;7.03;;
63005;SDS011;53704;52.532;6.426;2023-07-13T09:44:27;16.63;;;5.30;;
63005;SDS011;53704;52.532;6.426;2023-07-13T09:46:58;19.63;;;5.47;;
63005;SDS011;53704;52.532;6.426;2023-07-13T09:49:25;10.90;;;5.18;;
63005;SDS011;53704;52.532;6.426;2023-07-13T09:51:57;15.25;;;5.20;;
63005;SDS011;53704;52.532;6.426;2023-07-13T09:54:33;9.30;;;4.32;;
63005;SDS011;53704;52.532;6.426;2023-07-13T09:57:22;8.43;;;4.10;;
63005;SDS011;53704;52.532;6.426;2023-07-13T10:02:30;8.10;;;4.18;;
63005;SDS011;53704;52.532;6.426;2023-07-13T10:07:30;24.13;;;7.55;;
63005;SDS011;53704;52.532;6.426;2023-07-13T10:09:58;30.95;;;8.85;;
63005;SDS011;53704;52.532;6.426;2023-07-13T10:12:26;17.77;;;6.38;;
63005;SDS011;53704;52.532;6.426;2023-07-13T10:14:54;11.73;;;6.05;;
63005;SDS011;53704;52.532;6.426;2023-07-13T10:17:25;11.40;;;6.78;;
63005;SDS011;53704;52.532;6.426;2023-07-13T10:19:55;14.45;;;7.00;;
63005;SDS011;53704;52.532;6.426;2023-07-13T10:25:20;15.07;;;5.68;;
63005;SDS011;53704;52.532;6.426;2023-07-13T10:27:56;13.77;;;5.72;;
63005;SDS011;53704;52.532;6.426;2023-07-13T10:30:28;9.05;;;5.68;;
63005;SDS011;53704;52.532;6.426;2023-07-13T10:33:03;11.10;;;5.93;;
63005;SDS011;53704;52.532;6.426;2023-07-13T10:35:36;12.23;;;4.88;;
63005;SDS011;53704;52.532;6.426;2023-07-13T10:38:05;12.60;;;4.00;;
63005;SDS011;53704;52.532;6.426;2023-07-13T10:41:17;8.32;;;3.17;;
63005;SDS011;53704;52.532;6.426;2023-07-13T10:43:41;9.00;;;2.85;;
63005;SDS011;53704;52.532;6.426;2023-07-13T10:46:11;4.70;;;2.50;;
63005;SDS011;53704;52.532;6.426;2023-07-13T10:48:40;4.95;;;2.42;;
63005;SDS011;53704;52.532;6.426;2023-07-13T10:51:08;6.30;;;2.47;;
63005;SDS011;53704;52.532;6.426;2023-07-13T10:53:41;11.48;;;2.30;;
63005;SDS011;53704;52.532;6.426;2023-07-13T10:56:22;5.72;;;2.30;;
63005;SDS011;53704;52.532;6.426;2023-07-13T11:04:18;3.58;;;1.80;;
63005;SDS011;53704;52.532;6.426;2023-07-13T11:06:46;15.25;;;2.35;;
63005;SDS011;53704;52.532;6.426;2023-07-13T11:09:19;3.08;;;2.78;;
63005;SDS011;53704;52.532;6.426;2023-07-13T11:12:08;10.38;;;3.20;;
63005;SDS011;53704;52.532;6.426;2023-07-13T11:22:43;8.60;;;4.03;;
63005;SDS011;53704;52.532;6.426;2023-07-13T11:25:29;5.38;;;3.15;;
63005;SDS011;53704;52.532;6.426;2023-07-13T11:28:16;4.63;;;3.05;;
63005;SDS011;53704;52.532;6.426;2023-07-13T11:38:32;7.93;;;3.53;;
63005;SDS011;53704;52.532;6.426;2023-07-13T11:41:05;11.50;;;3.75;;
63005;SDS011;53704;52.532;6.426;2023-07-13T11:43:48;4.80;;;3.50;;
63005;SDS011;53704;52.532;6.426;2023-07-13T11:46:25;7.05;;;3.13;;
63005;SDS011;53704;52.532;6.426;2023-07-13T11:48:52;7.57;;;3.60;;
63005;SDS011;53704;52.532;6.426;2023-07-13T11:51:21;8.63;;;3.72;;
63005;SDS011;53704;52.532;6.426;2023-07-13T11:53:49;10.45;;;3.22;;
63005;SDS011;53704;52.532;6.426;2023-07-13T11:56:17;8.90;;;3.72;;
63005;SDS011;53704;52.532;6.426;2023-07-13T11:58:43;6.65;;;3.88;;
63005;SDS011;53704;52.532;6.426;2023-07-13T12:01:28;11.98;;;3.83;;
63005;SDS011;53704;52.532;6.426;2023-07-13T12:03:59;9.52;;;3.97;;
63005;SDS011;53704;52.532;6.426;2023-07-13T12:06:33;15.57;;;3.75;;
63005;SDS011;53704;52.532;6.426;2023-07-13T12:09:12;6.05;;;3.08;;
63005;SDS011;53704;52.532;6.426;2023-07-13T12:11:41;7.38;;;3.45;;
63005;SDS011;53704;52.532;6.426;2023-07-13T12:14:13;6.82;;;3.42;;
63005;SDS011;53704;52.532;6.426;2023-07-13T12:16:40;6.55;;;3.13;;
63005;SDS011;53704;52.532;6.426;2023-07-13T12:19:09;9.68;;;3.60;;
63005;SDS011;53704;52.532;6.426;2023-07-13T12:21:42;8.75;;;4.13;;
63005;SDS011;53704;52.532;6.426;2023-07-13T12:24:16;6.95;;;3.33;;
63005;SDS011;53704;52.532;6.426;2023-07-13T12:26:43;6.13;;;2.97;;
63005;SDS011;53704;52.532;6.426;2023-07-13T12:29:15;8.65;;;3.65;;
63005;SDS011;53704;52.532;6.426;2023-07-13T12:31:43;7.03;;;3.47;;
63005;SDS011;53704;52.532;6.426;2023-07-13T12:34:20;17.17;;;4.10;;
63005;SDS011;53704;52.532;6.426;2023-07-13T12:36:53;7.45;;;3.35;;
63005;SDS011;53704;52.532;6.426;2023-07-13T12:41:47;6.43;;;3.60;;
63005;SDS011;53704;52.532;6.426;2023-07-13T12:44:15;13.23;;;4.93;;
63005;SDS011;53704;52.532;6.426;2023-07-13T12:47:13;5.55;;;3.72;;
63005;SDS011;53704;52.532;6.426;2023-07-13T12:49:43;9.85;;;3.80;;
63005;SDS011;53704;52.532;6.426;2023-07-13T12:52:23;11.93;;;4.10;;
63005;SDS011;53704;52.532;6.426;2023-07-13T12:55:03;15.13;;;3.78;;
63005;SDS011;53704;52.532;6.426;2023-07-13T12:58:03;9.20;;;3.95;;
63005;SDS011;53704;52.532;6.426;2023-07-13T13:00:29;17.08;;;3.80;;
63005;SDS011;53704;52.532;6.426;2023-07-13T13:03:34;6.50;;;2.92;;
63005;SDS011;53704;52.532;6.426;2023-07-13T13:06:02;13.15;;;3.58;;
63005;SDS011;53704;52.532;6.426;2023-07-13T13:08:30;4.95;;;2.97;;
63005;SDS011;53704;52.532;6.426;2023-07-13T13:10:57;8.23;;;3.40;;
63005;SDS011;53704;52.532;6.426;2023-07-13T13:13:23;6.93;;;3.53;;
63005;SDS011;53704;52.532;6.426;2023-07-13T13:15:49;10.45;;;3.70;;
63005;SDS011;53704;52.532;6.426;2023-07-13T13:18:18;5.15;;;3.10;;
63005;SDS011;53704;52.532;6.426;2023-07-13T13:20:45;10.63;;;3.50;;
63005;SDS011;53704;52.532;6.426;2023-07-13T13:23:15;16.15;;;3.70;;
63005;SDS011;53704;52.532;6.426;2023-07-13T13:25:44;8.95;;;3.08;;
63005;SDS011;53704;52.532;6.426;2023-07-13T13:28:15;13.65;;;3.72;;
63005;SDS011;53704;52.532;6.426;2023-07-13T13:30:42;9.68;;;3.20;;
63005;SDS011;53704;52.532;6.426;2023-07-13T13:33:12;8.43;;;2.55;;
63005;SDS011;53704;52.532;6.426;2023-07-13T13:35:41;13.85;;;2.63;;
63005;SDS011;53704;52.532;6.426;2023-07-13T13:38:13;9.48;;;2.40;;
63005;SDS011;53704;52.532;6.426;2023-07-13T13:40:42;6.95;;;2.85;;
63005;SDS011;53704;52.532;6.426;2023-07-13T13:43:18;15.52;;;2.47;;
63005;SDS011;53704;52.532;6.426;2023-07-13T13:45:51;12.35;;;2.50;;
63005;SDS011;53704;52.532;6.426;2023-07-13T13:48:18;5.47;;;2.38;;
63005;SDS011;53704;52.532;6.426;2023-07-13T13:50:46;8.10;;;2.40;;
63005;SDS011;53704;52.532;6.426;2023-07-13T13:53:13;7.60;;;2.40;;
63005;SDS011;53704;52.532;6.426;2023-07-13T13:55:39;8.40;;;2.30;;
63005;SDS011;53704;52.532;6.426;2023-07-13T13:58:09;6.53;;;2.35;;
63005;SDS011;53704;52.532;6.426;2023-07-13T14:00:36;2.58;;;2.13;;
63005;SDS011;53704;52.532;6.426;2023-07-13T14:03:03;4.82;;;2.05;;
63005;SDS011;53704;52.532;6.426;2023-07-13T14:05:32;4.97;;;1.98;;
63005;SDS011;53704;52.532;6.426;2023-07-13T14:07:57;3.80;;;2.22;;
63005;SDS011;53704;52.532;6.426;2023-07-13T14:10:25;8.48;;;2.45;;
63005;SDS011;53704;52.532;6.426;2023-07-13T14:12:53;8.23;;;2.58;;
63005;SDS011;53704;52.532;6.426;2023-07-13T14:15:24;9.50;;;2.50;;
63005;SDS011;53704;52.532;6.426;2023-07-13T14:17:52;3.35;;;2.20;;
63005;SDS011;53704;52.532;6.426;2023-07-13T14:20:19;4.93;;;2.20;;
63005;SDS011;53704;52.532;6.426;2023-07-13T14:22:48;3.53;;;2.20;;
63005;SDS011;53704;52.532;6.426;2023-07-13T14:25:15;9.30;;;2.15;;
63005;SDS011;53704;52.532;6.426;2023-07-13T14:27:42;6.22;;;2.08;;
63005;SDS011;53704;52.532;6.426;2023-07-13T14:30:19;3.65;;;2.17;;
63005;SDS011;53704;52.532;6.426;2023-07-13T14:32:45;5.53;;;1.80;;
63005;SDS011;53704;52.532;6.426;2023-07-13T14:35:14;6.78;;;2.03;;
63005;SDS011;53704;52.532;6.426;2023-07-13T14:37:41;3.40;;;2.10;;
63005;SDS011;53704;52.532;6.426;2023-07-13T14:40:18;2.47;;;2.22;;
63005;SDS011;53704;52.532;6.426;2023-07-13T14:42:49;9.75;;;2.58;;
63005;SDS011;53704;52.532;6.426;2023-07-13T14:45:15;5.07;;;2.00;;
63005;SDS011;53704;52.532;6.426;2023-07-13T14:47:43;10.75;;;2.17;;
63005;SDS011;53704;52.532;6.426;2023-07-13T14:50:42;10.05;;;2.25;;
63005;SDS011;53704;52.532;6.426;2023-07-13T14:53:03;4.20;;;2.05;;
63005;SDS011;53704;52.532;6.426;2023-07-13T14:55:28;7.82;;;1.77;;
63005;SDS011;53704;52.532;6.426;2023-07-13T14:57:54;3.65;;;1.90;;
63005;SDS011;53704;52.532;6.426;2023-07-13T15:00:20;4.28;;;1.83;;
63005;SDS011;53704;52.532;6.426;2023-07-13T15:02:50;9.23;;;2.30;;
63005;SDS011;53704;52.532;6.426;2023-07-13T15:05:23;5.65;;;2.25;;
63005;SDS011;53704;52.532;6.426;2023-07-13T15:07:51;4.10;;;2.38;;
63005;SDS011;53704;52.532;6.426;2023-07-13T15:10:22;6.28;;;3.00;;
63005;SDS011;53704;52.532;6.426;2023-07-13T15:12:51;2.75;;;1.67;;
63005;SDS011;53704;52.532;6.426;2023-07-13T15:15:18;2.97;;;1.95;;
63005;SDS011;53704;52.532;6.426;2023-07-13T15:17:45;8.07;;;2.05;;
63005;SDS011;53704;52.532;6.426;2023-07-13T15:22:40;3.85;;;2.40;;
63005;SDS011;53704;52.532;6.426;2023-07-13T15:25:11;7.03;;;2.55;;
63005;SDS011;53704;52.532;6.426;2023-07-13T15:27:40;4.57;;;2.08;;
63005;SDS011;53704;52.532;6.426;2023-07-13T15:30:06;7.93;;;2.13;;
63005;SDS011;53704;52.532;6.426;2023-07-13T15:32:32;6.07;;;2.72;;
63005;SDS011;53704;52.532;6.426;2023-07-13T15:34:57;9.43;;;2.42;;
63005;SDS011;53704;52.532;6.426;2023-07-13T15:37:23;3.05;;;2.10;;
63005;SDS011;53704;52.532;6.426;2023-07-13T15:39:49;8.18;;;2.67;;
63005;SDS011;53704;52.532;6.426;2023-07-13T15:42:19;9.43;;;2.97;;